Time;durP1;ratioP1;P1;durP2;ratioP2;P2;SDS_P1;SDS_P2;PMS_P1;PMS_P2;Temp;Humidity;BMP_temperature;BMP_pressure;BME280_temperature;BME280_humidity;BME280_pressure;Samples;Min_cycle;Max_cycle;Signal;HPM_P1;HPM_P2
2023/10/27 00:09:33;;;;;;;;;;;10.00;99.90;;;;;;21231794;27;19915;-81
2023/10/27 00:19:33;;;;;;;;;;;9.90;99.90;;;;;;21237383;27;20426;-80
2023/10/27 00:29:34;;;;;;;;;;;9.90;99.90;;;;;;21242240;27;19915;-81
2023/10/27 00:39:34;;;;;;;;;;;9.90;99.90;;;;;;21278788;27;19912;-80
2023/10/27 00:49:35;;;;;;;;;;;9.90;99.90;;;;;;21266603;27;19923;-79
2023/10/27 00:59:36;;;;;;;;;;;9.90;99.90;;;;;;21264868;27;19912;-81
2023/10/27 01:09:36;;;;;;;;;;;9.80;99.90;;;;;;21302713;27;20274;-80
2023/10/27 01:19:37;;;;;;;;;;;9.80;99.90;;;;;;21271674;27;19915;-80
2023/10/27 01:29:38;;;;;;;;;;;9.70;99.90;;;;;;21305397;27;19918;-80
2023/10/27 01:39:39;;;;;;;;;;;9.80;99.90;;;;;;21356436;27;19958;-81
2023/10/27 01:49:39;;;;;;;;;;;9.80;99.90;;;;;;21377462;27;19934;-80
2023/10/27 01:59:40;;;;;;;;;;;9.90;99.90;;;;;;21335995;27;19920;-81
2023/10/27 02:09:40;;;;;;;;;;;9.80;99.90;;;;;;21331453;27;19940;-80
2023/10/27 02:19:41;;;;;;;;;;;9.80;99.90;;;;;;21341812;27;19979;-80
2023/10/27 02:29:42;;;;;;;;;;;9.90;99.90;;;;;;21296656;27;19915;-81
2023/10/27 02:39:42;;;;;;;;;;;9.90;99.90;;;;;;21277894;27;19917;-80
2023/10/27 02:49:43;;;;;;;;;;;9.90;99.90;;;;;;21269295;27;20374;-81
2023/10/27 02:59:44;;;;;;;;;;;9.80;99.90;;;;;;21283184;27;19957;-80
2023/10/27 03:09:45;;;;;;;;;;;9.80;99.90;;;;;;21287088;27;20341;-80
2023/10/27 03:19:45;;;;;;;;;;;9.90;99.90;;;;;;21274719;27;19912;-80
2023/10/27 03:29:46;;;;;;;;;;;9.80;99.90;;;;;;21275370;27;20010;-81
2023/10/27 03:39:46;;;;;;;;;;;9.70;99.90;;;;;;21266172;27;19912;-81
2023/10/27 03:49:47;;;;;;;;;;;9.70;99.90;;;;;;21264294;27;19947;-81
2023/10/27 03:59:48;;;;;;;;;;;9.70;99.90;;;;;;21263673;27;19962;-80
2023/10/27 04:09:48;;;;;;;;;;;9.70;99.90;;;;;;21294366;27;19923;-80
2023/10/27 04:19:50;;;;;;;;;;;9.80;99.90;;;;;;21279445;27;19919;-79
2023/10/27 04:29:51;;;;;;;;;;;9.70;99.90;;;;;;21252797;27;19916;-81
2023/10/27 04:39:54;;;;;;;;;;;9.70;99.90;;;;;;21289108;27;19934;-79
2023/10/27 04:49:55;;;;;;;;;;;10.00;99.90;;;;;;21281890;27;19926;-80
2023/10/27 04:59:56;;;;;;;;;;;10.30;99.90;;;;;;21289933;27;19912;-79
2023/10/27 05:09:56;;;;;;;;;;;10.20;99.90;;;;;;21287112;27;19997;-80
2023/10/27 05:19:57;;;;;;;;;;;10.30;99.90;;;;;;21284884;27;19932;-79
2023/10/27 05:29:58;;;;;;;;;;;10.30;99.90;;;;;;21274041;27;20294;-77
2023/10/27 05:40:00;;;;;;;;;;;10.30;99.90;;;;;;21269028;27;21491;-78
2023/10/27 05:50:01;;;;;;;;;;;10.20;99.90;;;;;;21267627;27;20267;-77
2023/10/27 06:00:03;;;;;;;;;;;10.10;99.90;;;;;;21280586;27;19911;-78
2023/10/27 06:10:06;;;;;;;;;;;10.20;99.90;;;;;;21283855;27;20511;-78
2023/10/27 06:20:07;;;;;;;;;;;10.20;99.90;;;;;;21274634;27;19918;-78
2023/10/27 06:30:07;;;;;;;;;;;10.30;99.90;;;;;;21284391;27;20001;-79
2023/10/27 06:40:09;;;;;;;;;;;10.20;99.90;;;;;;21273251;27;19939;-78
2023/10/27 06:50:10;;;;;;;;;;;10.30;99.90;;;;;;21269176;27;19970;-77
2023/10/27 07:00:11;;;;;;;;;;;10.40;99.90;;;;;;21268817;27;20381;-77
2023/10/27 07:10:12;;;;;;;;;;;10.50;99.90;;;;;;21264120;27;20003;-79
2023/10/27 07:20:13;;;;;;;;;;;10.90;99.90;;;;;;21264518;27;19915;-79
2023/10/27 07:30:13;;;;;;;;;;;11.70;99.90;;;;;;21254825;27;19915;-79
2023/10/27 07:40:15;;;;;;;;;;;12.20;99.90;;;;;;21248907;27;19915;-79
2023/10/27 07:50:17;;;;;;;;;;;12.40;99.90;;;;;;21264787;27;19915;-79
2023/10/27 08:00:18;;;;;;;;;;;12.80;99.90;;;;;;21270212;27;20542;-79
2023/10/27 08:10:20;;;;;;;;;;;13.10;99.90;;;;;;21274409;27;19938;-80
2023/10/27 08:20:21;;;;;;;;;;;13.40;99.90;;;;;;21257709;27;19939;-80
2023/10/27 08:30:22;;;;;;;;;;;13.50;99.90;;;;;;21256515;27;19915;-78
2023/10/27 08:40:23;;;;;;;;;;;13.00;99.90;;;;;;21234315;27;19919;-78
2023/10/27 08:50:24;;;;;;;;;;;12.60;99.90;;;;;;21234059;27;19923;-78
2023/10/27 09:00:24;;;;;;;;;;;12.30;99.90;;;;;;21251691;27;20319;-79
2023/10/27 09:10:26;;;;;;;;;;;12.10;99.90;;;;;;21246247;27;19969;-80
2023/10/27 09:20:27;;;;;;;;;;;11.40;99.90;;;;;;21255446;27;19912;-79
2023/10/27 09:30:29;;;;;;;;;;;11.20;99.90;;;;;;21265430;27;19935;-79
2023/10/27 09:40:30;;;;;;;;;;;11.10;99.90;;;;;;21271901;27;19919;-78
2023/10/27 09:50:31;;;;;;;;;;;11.00;99.90;;;;;;21282422;27;19973;-79
2023/10/27 10:00:32;;;;;;;;;;;10.90;99.90;;;;;;21282283;27;19912;-77
2023/10/27 10:10:33;;;;;;;;;;;10.90;99.90;;;;;;21287592;27;20010;-76
2023/10/27 10:20:47;;;;;;;;;;;11.20;99.90;;;;;;21287587;27;19912;-78
2023/10/27 10:30:48;;;;;;;;;;;11.40;99.90;;;;;;21282878;27;19919;-77
2023/10/27 10:40:49;;;;;;;;;;;11.50;99.90;;;;;;21275321;27;19982;-77
2023/10/27 10:50:50;;;;;;;;;;;11.60;99.90;;;;;;21278547;27;19951;-78
2023/10/27 11:00:52;;;;;;;;;;;11.90;99.90;;;;;;21271530;27;20369;-78
2023/10/27 11:10:59;;;;;;;;;;;13.30;99.90;;;;;;21275909;27;19915;-77
2023/10/27 11:21:00;;;;;;;;;;;13.70;99.90;;;;;;21238145;27;20047;-79
2023/10/27 11:31:01;;;;;;;;;;;13.80;99.90;;;;;;21261109;27;19915;-79
2023/10/27 11:41:08;;;;;;;;;;;14.60;99.90;;;;;;21276004;27;20438;-77
2023/10/27 11:51:09;;;;;;;;;;;14.90;99.90;;;;;;21275696;27;20424;-80
2023/10/27 12:01:11;;;;;;;;;;;13.90;99.90;;;;;;21274909;27;20430;-81
2023/10/27 12:11:14;;;;;;;;;;;14.60;99.90;;;;;;21278624;27;19915;-79
2023/10/27 12:21:15;;;;;;;;;;;15.20;99.90;;;;;;21262685;27;19967;-79
2023/10/27 12:31:16;;;;;;;;;;;14.50;99.90;;;;;;21316883;27;20301;-80
2023/10/27 12:41:16;;;;;;;;;;;15.60;99.90;;;;;;21374127;27;19917;-79
2023/10/27 12:51:17;;;;;;;;;;;15.90;99.90;;;;;;21386273;27;19915;-81
2023/10/27 13:01:17;;;;;;;;;;;16.20;99.90;;;;;;21375092;27;20388;-81
2023/10/27 13:11:18;;;;;;;;;;;16.20;99.90;;;;;;21370155;27;19919;-79
2023/10/27 13:21:19;;;;;;;;;;;16.00;99.90;;;;;;21349493;27;19951;-80
2023/10/27 13:31:19;;;;;;;;;;;14.50;99.90;;;;;;21335774;27;19919;-79
2023/10/27 13:41:23;;;;;;;;;;;14.20;99.90;;;;;;21348723;27;19911;-78
2023/10/27 13:51:24;;;;;;;;;;;14.90;99.90;;;;;;21364568;27;19915;-80
2023/10/27 14:01:25;;;;;;;;;;;15.70;99.90;;;;;;21377527;27;19922;-80
2023/10/27 14:11:26;;;;;;;;;;;15.70;99.90;;;;;;21354578;27;19998;-80
2023/10/27 14:21:26;;;;;;;;;;;16.40;99.90;;;;;;21387267;27;19911;-79
2023/10/27 14:31:27;;;;;;;;;;;16.70;99.90;;;;;;21380150;27;20334;-79
2023/10/27 14:41:28;;;;;;;;;;;16.50;99.90;;;;;;21360478;27;19940;-80
2023/10/27 14:51:29;;;;;;;;;;;16.30;99.90;;;;;;21361762;27;19926;-80
2023/10/27 15:01:29;;;;;;;;;;;16.40;99.90;;;;;;21345750;27;19933;-80
2023/10/27 15:11:30;;;;;;;;;;;17.40;99.90;;;;;;21362598;27;19923;-81
2023/10/27 15:21:31;;;;;;;;;;;17.20;99.90;;;;;;21365203;27;20326;-80
2023/10/27 15:31:31;;;;;;;;;;;15.70;99.90;;;;;;21370664;27;20001;-79
2023/10/27 15:41:38;;;;;;;;;;;16.20;99.90;;;;;;21389902;27;20397;-80
2023/10/27 15:51:39;;;;;;;;;;;15.40;99.90;;;;;;21387355;27;19922;-82
2023/10/27 16:01:39;;;;;;;;;;;14.50;99.90;;;;;;21360918;27;19995;-81
2023/10/27 16:11:40;;;;;;;;;;;14.00;99.90;;;;;;21359604;27;19922;-78
2023/10/27 16:21:41;;;;;;;;;;;13.70;99.90;;;;;;21367669;27;19956;-82
2023/10/27 16:31:42;;;;;;;;;;;13.40;99.90;;;;;;21354803;27;19922;-79
2023/10/27 16:41:43;;;;;;;;;;;12.90;99.90;;;;;;21368328;27;19963;-81
2023/10/27 16:51:44;;;;;;;;;;;12.60;99.90;;;;;;21377423;27;19915;-79
2023/10/27 17:01:44;;;;;;;;;;;11.80;99.90;;;;;;21376124;27;20003;-81
2023/10/27 17:11:45;;;;;;;;;;;11.30;99.90;;;;;;21382727;27;19915;-81
2023/10/27 17:21:46;;;;;;;;;;;10.60;99.90;;;;;;21369261;27;19918;-80
2023/10/27 17:31:47;;;;;;;;;;;10.50;99.90;;;;;;21390426;27;19922;-82
2023/10/27 17:41:48;;;;;;;;;;;10.20;99.90;;;;;;21342938;27;19911;-81
2023/10/27 17:51:48;;;;;;;;;;;10.20;99.90;;;;;;21365735;27;19915;-81
2023/10/27 18:01:49;;;;;;;;;;;9.70;99.90;;;;;;21374270;27;20296;-81
2023/10/27 18:11:50;;;;;;;;;;;9.50;99.90;;;;;;21371158;27;19919;-81
2023/10/27 18:21:51;;;;;;;;;;;9.60;99.90;;;;;;21370937;27;19918;-80
2023/10/27 18:31:52;;;;;;;;;;;9.60;99.90;;;;;;21359936;27;19919;-81
2023/10/27 18:41:52;;;;;;;;;;;9.50;99.90;;;;;;21385212;27;20331;-79
2023/10/27 18:51:53;;;;;;;;;;;9.20;99.90;;;;;;21365488;27;20006;-78
2023/10/27 19:01:54;;;;;;;;;;;9.20;99.90;;;;;;21368908;27;19911;-79
2023/10/27 19:11:55;;;;;;;;;;;8.90;99.90;;;;;;21360436;27;19918;-80
2023/10/27 19:21:55;;;;;;;;;;;9.10;99.90;;;;;;21326238;27;20332;-81
2023/10/27 19:31:56;;;;;;;;;;;9.10;99.90;;;;;;21343741;27;19919;-80
2023/10/27 19:41:58;;;;;;;;;;;9.20;99.90;;;;;;21327579;27;19915;-78
2023/10/27 19:52:03;;;;;;;;;;;9.50;99.90;;;;;;21341332;27;19915;-80
2023/10/27 20:02:03;;;;;;;;;;;9.50;99.90;;;;;;21350824;27;19918;-80
2023/10/27 20:12:04;;;;;;;;;;;9.50;99.90;;;;;;21371820;27;19914;-80
2023/10/27 20:22:05;;;;;;;;;;;9.40;99.90;;;;;;21356763;27;20200;-80
2023/10/27 20:32:05;;;;;;;;;;;9.50;99.90;;;;;;21354780;27;19923;-78
2023/10/27 20:42:06;;;;;;;;;;;9.90;99.90;;;;;;21328607;27;19911;-79
2023/10/27 20:52:07;;;;;;;;;;;9.80;99.90;;;;;;21336934;27;20445;-80
2023/10/27 21:02:07;;;;;;;;;;;9.60;99.90;;;;;;21342221;27;19911;-78
2023/10/27 21:12:08;;;;;;;;;;;9.50;99.90;;;;;;21356309;27;19915;-78
2023/10/27 21:22:08;;;;;;;;;;;9.40;99.90;;;;;;21343307;27;19911;-79
2023/10/27 21:32:09;;;;;;;;;;;9.30;99.90;;;;;;21339018;27;20002;-79
2023/10/27 21:42:10;;;;;;;;;;;9.30;99.90;;;;;;21345687;27;19922;-79
2023/10/27 21:52:11;;;;;;;;;;;9.10;99.90;;;;;;21337729;27;20285;-78
2023/10/27 22:02:11;;;;;;;;;;;9.10;99.90;;;;;;21351696;27;19912;-78
2023/10/27 22:12:14;;;;;;;;;;;9.10;99.90;;;;;;21317610;27;19915;-78
2023/10/27 22:22:16;;;;;;;;;;;9.10;99.90;;;;;;21333837;27;19919;-80
2023/10/27 22:32:17;;;;;;;;;;;9.10;99.90;;;;;;21330192;27;19919;-79
2023/10/27 22:42:18;;;;;;;;;;;9.00;99.90;;;;;;21330396;27;19918;-78
2023/10/27 22:52:20;;;;;;;;;;;9.10;99.90;;;;;;21328538;27;19915;-78
2023/10/27 23:02:21;;;;;;;;;;;9.20;99.90;;;;;;21343676;27;19942;-79
2023/10/27 23:12:22;;;;;;;;;;;9.20;99.90;;;;;;21334773;27;19915;-79
2023/10/27 23:22:23;;;;;;;;;;;9.10;99.90;;;;;;21305735;27;19911;-78
2023/10/27 23:32:24;;;;;;;;;;;9.10;99.90;;;;;;21337414;27;20380;-79
2023/10/27 23:42:24;;;;;;;;;;;9.30;99.90;;;;;;21349765;27;19915;-78
2023/10/27 23:52:25;;;;;;;;;;;9.30;99.90;;;;;;21368833;27;19915;-79
